Laurel Run, Pennsylvania
Current Conditions -  °F | °C
As of 3:54 AM on Friday 24 Oct 2014 (Local Time) from KAVP Reporting Station
Overcast Overcast  
Wind Chill: 51°   Ceiling: 1800
Heat Index: 51°   Visibility: 10mi
Dew Point: 43°   Wind: 10mph
Humidity: 74%   Direction: 330°NNW
Pressure: 29.87"   Gusts: NA
Location:  41.1921°N, 75.9213°W
Report Text: KAVP 240754Z AUTO 33009KT 10SM OVC018 11/06 A2987 RMK AO2 SLP114 T01060061
Loading
Personal Weather Stations






























Interactive Weather Map
Tropical Storm Tracking
New forecast layout! Learn more

10-Day Weather Forecast

Advertisements
Track Severe Weather on mobile